Time;durP1;ratioP1;P1;durP2;ratioP2;P2;SDS_P1;SDS_P2;PMS_P1;PMS_P2;Temp;Humidity;BMP_temperature;BMP_pressure;BME280_temperature;BME280_humidity;BME280_pressure;Samples;Min_cycle;Max_cycle;Signal;HPM_P1;HPM_P2
2021/10/01 00:00:07;;;;;;;3.85;0.80;;;13.00;79.70;;;;;;4997815;28;20029;-76
2021/10/01 00:02:33;;;;;;;5.95;1.02;;;12.90;79.80;;;;;;5015214;28;20029;-74
2021/10/01 00:05:00;;;;;;;4.85;0.65;;;12.90;80.00;;;;;;5013763;28;20022;-77
2021/10/01 00:07:26;;;;;;;5.00;0.70;;;12.80;80.10;;;;;;5013903;28;20469;-76
2021/10/01 00:09:52;;;;;;;5.40;0.93;;;12.80;80.20;;;;;;5015131;28;20504;-75
2021/10/01 00:12:18;;;;;;;3.85;0.80;;;12.80;80.40;;;;;;5014225;28;20064;-75
2021/10/01 00:14:44;;;;;;;5.88;0.90;;;12.80;80.50;;;;;;4997913;28;20033;-75
2021/10/01 00:17:10;;;;;;;2.88;0.68;;;12.70;80.60;;;;;;5013694;28;20036;-75
2021/10/01 00:19:36;;;;;;;4.95;0.57;;;12.70;80.70;;;;;;4997374;28;20030;-76
2021/10/01 00:22:03;;;;;;;5.05;0.82;;;12.70;80.80;;;;;;5014726;28;20069;-75
2021/10/01 00:24:34;;;;;;;4.85;1.15;;;12.70;80.80;;;;;;5014594;28;20022;-75
2021/10/01 00:27:00;;;;;;;4.68;0.98;;;12.80;80.90;;;;;;5013363;28;20025;-75
2021/10/01 00:29:26;;;;;;;8.95;0.95;;;12.80;80.90;;;;;;5013412;28;20386;-75
2021/10/01 00:31:52;;;;;;;4.65;1.05;;;12.70;80.80;;;;;;5013163;28;20109;-75
2021/10/01 00:34:17;;;;;;;3.58;0.70;;;12.80;80.90;;;;;;4996802;28;20485;-75
2021/10/01 00:36:43;;;;;;;4.78;0.68;;;12.80;80.90;;;;;;5014707;28;20057;-76
2021/10/01 00:39:08;;;;;;;4.38;0.90;;;12.80;80.80;;;;;;4997060;28;20092;-76
2021/10/01 00:41:36;;;;;;;2.47;0.60;;;12.80;80.80;;;;;;4996922;28;20535;-75
2021/10/01 00:44:03;;;;;;;5.05;0.57;;;12.80;81.40;;;;;;5014317;28;20026;-76
2021/10/01 00:46:29;;;;;;;3.97;0.75;;;12.70;80.70;;;;;;5013198;28;20072;-76
2021/10/01 00:48:55;;;;;;;5.65;0.77;;;12.80;80.70;;;;;;4996871;28;20018;-78
2021/10/01 00:51:23;;;;;;;3.80;0.70;;;12.90;80.70;;;;;;5014006;28;20378;-77
2021/10/01 00:53:51;;;;;;;5.47;0.63;;;12.90;80.50;;;;;;5012462;28;20065;-76
2021/10/01 00:56:17;;;;;;;4.57;0.55;;;12.90;80.40;;;;;;4996838;28;20172;-76
2021/10/01 00:58:43;;;;;;;3.85;0.60;;;12.90;80.40;;;;;;4996515;28;20477;-76
2021/10/01 01:01:12;;;;;;;4.90;0.70;;;12.90;80.50;;;;;;5013488;28;20026;-76
2021/10/01 01:03:50;;;;;;;3.50;0.50;;;12.90;80.40;;;;;;4997200;28;20099;-83
2021/10/01 01:06:30;;;;;;;3.58;0.70;;;12.90;80.40;;;;;;5014272;28;20029;-80
2021/10/01 01:08:59;;;;;;;3.72;0.90;;;12.90;80.40;;;;;;5014188;28;20033;-81
2021/10/01 01:12:03;;;;;;;6.38;0.63;;;12.90;80.40;;;;;;5029483;28;20085;-79
2021/10/01 01:14:48;;;;;;;3.95;0.60;;;12.90;80.30;;;;;;5012372;28;20440;-80
2021/10/01 01:17:20;;;;;;;2.08;0.50;;;12.90;80.40;;;;;;5012718;28;20053;-79
2021/10/01 01:20:08;;;;;;;4.22;0.90;;;12.90;80.40;;;;;;5013964;28;20034;-78
2021/10/01 01:22:39;;;;;;;5.13;0.68;;;12.90;80.40;;;;;;5012493;28;20065;-80
2021/10/01 01:25:27;;;;;;;2.92;0.70;;;12.90;80.40;;;;;;5013693;28;20072;-80
2021/10/01 01:27:59;;;;;;;4.53;0.77;;;12.80;80.30;;;;;;5029111;28;20117;-81
2021/10/01 01:30:35;;;;;;;2.85;0.75;;;12.80;80.30;;;;;;5013670;28;20057;-77
2021/10/01 01:33:02;;;;;;;3.88;0.60;;;12.80;80.30;;;;;;5013560;28;20056;-75
2021/10/01 01:35:34;;;;;;;6.60;1.00;;;12.80;80.20;;;;;;5024339;28;20034;-75
2021/10/01 01:38:18;;;;;;;7.38;1.00;;;12.80;80.20;;;;;;5009996;28;20033;-77
2021/10/01 01:40:50;;;;;;;3.65;0.55;;;12.70;80.20;;;;;;5013536;28;20022;-75
2021/10/01 01:43:15;;;;;;;4.63;0.68;;;12.70;80.30;;;;;;5012533;28;20382;-76
2021/10/01 01:45:42;;;;;;;2.63;0.57;;;12.80;80.30;;;;;;5012380;28;20038;-76
2021/10/01 01:48:09;;;;;;;2.35;0.50;;;12.70;80.30;;;;;;4996454;28;20033;-76
2021/10/01 01:50:36;;;;;;;3.97;0.68;;;12.70;80.40;;;;;;5012408;28;20037;-76
2021/10/01 01:53:03;;;;;;;3.20;0.68;;;12.70;80.30;;;;;;5013509;28;20022;-75
2021/10/01 01:55:30;;;;;;;3.83;1.05;;;12.80;80.00;;;;;;5012335;28;20482;-74
2021/10/01 01:57:57;;;;;;;6.00;0.80;;;12.80;80.10;;;;;;5012447;28;20502;-76
2021/10/01 02:00:24;;;;;;;6.50;0.90;;;12.80;80.20;;;;;;5012390;28;20025;-75
2021/10/01 02:02:51;;;;;;;9.10;1.08;;;12.70;80.80;;;;;;5012283;28;20026;-76
2021/10/01 02:05:18;;;;;;;2.33;0.40;;;12.80;80.30;;;;;;4999955;28;20465;-76
2021/10/01 02:07:45;;;;;;;4.40;0.70;;;12.80;80.30;;;;;;5016109;28;20029;-76
2021/10/01 02:10:14;;;;;;;3.00;0.50;;;12.80;80.20;;;;;;5016187;28;20026;-76
2021/10/01 02:12:42;;;;;;;8.23;0.93;;;12.80;80.20;;;;;;5032441;28;20018;-75
2021/10/01 02:15:10;;;;;;;2.47;0.40;;;12.80;80.20;;;;;;5017300;28;20113;-75
2021/10/01 02:17:37;;;;;;;2.25;0.45;;;12.90;80.20;;;;;;5016187;28;20053;-75
2021/10/01 02:20:05;;;;;;;4.57;0.52;;;12.90;80.10;;;;;;4999498;28;20034;-75
2021/10/01 02:22:32;;;;;;;6.20;0.70;;;12.90;80.20;;;;;;5015575;28;20108;-76
2021/10/01 02:24:58;;;;;;;5.85;0.77;;;12.90;80.20;;;;;;5016875;28;20026;-75
2021/10/01 02:27:31;;;;;;;2.10;0.30;;;12.90;80.10;;;;;;5016991;28;20018;-76
2021/10/01 02:30:13;;;;;;;6.28;0.50;;;12.90;80.10;;;;;;5015953;28;20018;-74
2021/10/01 02:32:59;;;;;;;6.00;0.65;;;12.90;80.00;;;;;;4999437;28;20018;-75
2021/10/01 02:35:25;;;;;;;5.40;0.60;;;12.90;80.00;;;;;;5015498;28;20022;-75
2021/10/01 02:37:51;;;;;;;4.30;0.45;;;12.90;79.70;;;;;;5015582;28;20359;-75
2021/10/01 02:40:17;;;;;;;3.70;0.52;;;12.90;79.80;;;;;;5016841;28;20079;-76
2021/10/01 02:42:43;;;;;;;4.65;0.50;;;12.90;79.50;;;;;;5015878;28;20424;-76
2021/10/01 02:45:09;;;;;;;4.93;0.77;;;13.00;79.70;;;;;;5015573;28;20058;-76
2021/10/01 02:47:36;;;;;;;7.07;0.65;;;13.00;79.50;;;;;;4999524;28;20121;-75
2021/10/01 02:50:12;;;;;;;4.10;0.60;;;13.00;79.60;;;;;;5015433;28;20014;-75
2021/10/01 02:53:03;;;;;;;3.17;0.40;;;13.00;79.60;;;;;;5015266;28;20018;-76
2021/10/01 02:55:58;;;;;;;5.75;0.73;;;13.00;79.70;;;;;;5032112;28;20084;-76
2021/10/01 02:58:39;;;;;;;6.70;0.80;;;13.00;79.60;;;;;;5015394;28;20026;-76
2021/10/01 03:01:07;;;;;;;4.90;0.50;;;13.00;79.50;;;;;;5031634;28;20113;-76
2021/10/01 03:03:40;;;;;;;5.15;0.43;;;13.00;79.40;;;;;;5015355;28;20469;-77
2021/10/01 03:06:06;;;;;;;1.77;0.50;;;13.10;79.50;;;;;;5016547;28;20073;-76
2021/10/01 03:08:33;;;;;;;6.15;0.50;;;13.00;79.30;;;;;;4999016;28;20061;-75
2021/10/01 03:11:00;;;;;;;4.97;0.50;;;13.00;79.70;;;;;;5014917;28;20022;-75
2021/10/01 03:13:26;;;;;;;4.57;0.68;;;13.10;79.10;;;;;;5014785;28;20107;-75
2021/10/01 03:15:55;;;;;;;5.75;0.93;;;13.10;79.10;;;;;;5013971;28;20065;-76
2021/10/01 03:18:22;;;;;;;7.72;0.60;;;13.10;78.90;;;;;;5010491;28;20054;-76
2021/10/01 03:20:48;;;;;;;6.65;0.70;;;13.10;78.90;;;;;;4996444;28;20109;-75
2021/10/01 03:23:21;;;;;;;2.80;0.50;;;13.10;78.70;;;;;;5011275;28;20065;-74
2021/10/01 03:25:47;;;;;;;4.60;0.50;;;13.10;78.50;;;;;;4995182;28;20049;-74
2021/10/01 03:28:13;;;;;;;2.60;0.50;;;13.10;78.50;;;;;;4996562;28;20376;-75
2021/10/01 03:30:45;;;;;;;5.28;0.50;;;13.10;78.60;;;;;;4995129;28;20526;-75
2021/10/01 03:33:11;;;;;;;4.00;0.73;;;13.10;78.50;;;;;;4995045;28;20069;-76
2021/10/01 03:35:39;;;;;;;3.00;0.50;;;13.10;78.40;;;;;;4996455;28;20034;-75
2021/10/01 03:38:06;;;;;;;4.53;0.43;;;13.20;78.50;;;;;;5010789;28;20034;-75
2021/10/01 03:40:32;;;;;;;2.50;0.40;;;13.10;78.30;;;;;;4994973;28;20042;-75
2021/10/01 03:42:59;;;;;;;6.13;0.90;;;13.10;78.20;;;;;;4996266;28;20045;-75
2021/10/01 03:45:25;;;;;;;6.00;0.57;;;13.10;78.00;;;;;;4996102;28;20034;-76
2021/10/01 03:47:51;;;;;;;5.93;0.50;;;13.20;78.10;;;;;;4996006;28;20441;-75
2021/10/01 03:50:16;;;;;;;3.30;0.50;;;13.20;78.00;;;;;;5011224;28;20033;-75
2021/10/01 03:52:42;;;;;;;2.47;0.40;;;13.20;77.90;;;;;;5011085;28;20385;-75
2021/10/01 03:55:08;;;;;;;3.30;0.52;;;13.20;77.80;;;;;;5010892;28;20030;-75
2021/10/01 03:57:35;;;;;;;4.45;0.50;;;13.20;77.30;;;;;;4994716;28;20034;-80
2021/10/01 04:00:05;;;;;;;2.50;0.60;;;13.20;77.40;;;;;;4994372;28;20077;-79
2021/10/01 04:02:31;;;;;;;4.75;0.63;;;13.20;77.40;;;;;;4994397;28;20033;-81
2021/10/01 04:04:56;;;;;;;4.28;0.40;;;13.20;77.50;;;;;;4994542;28;20030;-78
2021/10/01 04:07:22;;;;;;;4.90;0.82;;;13.20;77.50;;;;;;4995788;28;20026;-81
2021/10/01 04:09:47;;;;;;;4.35;0.60;;;13.10;77.50;;;;;;4994165;28;20026;-80
2021/10/01 04:12:14;;;;;;;3.15;0.55;;;13.10;77.60;;;;;;5010696;28;20035;-77
2021/10/01 04:14:40;;;;;;;3.10;0.50;;;13.10;77.70;;;;;;4994702;28;20042;-80
2021/10/01 04:17:05;;;;;;;4.60;0.45;;;13.00;77.70;;;;;;5010494;28;20422;-79
2021/10/01 04:19:31;;;;;;;2.17;0.50;;;13.00;77.90;;;;;;4994103;28;20470;-78
2021/10/01 04:21:57;;;;;;;3.65;0.95;;;12.90;77.80;;;;;;4995182;28;20030;-81
2021/10/01 04:24:22;;;;;;;5.20;0.60;;;13.00;77.90;;;;;;4993744;28;20066;-81
2021/10/01 04:26:48;;;;;;;4.32;0.77;;;13.00;78.10;;;;;;5009347;28;20038;-81
2021/10/01 04:29:14;;;;;;;2.15;0.55;;;13.00;77.90;;;;;;4995106;28;20022;-80
2021/10/01 04:31:39;;;;;;;2.38;0.40;;;13.00;78.10;;;;;;4993821;28;20121;-81
2021/10/01 04:34:06;;;;;;;4.75;0.40;;;12.90;78.10;;;;;;4994869;28;20106;-82
2021/10/01 04:36:33;;;;;;;2.03;0.40;;;12.90;78.20;;;;;;4995243;28;20045;-79
2021/10/01 04:38:59;;;;;;;4.40;0.55;;;12.80;78.30;;;;;;4993786;28;20031;-77
2021/10/01 04:41:24;;;;;;;2.38;0.50;;;12.80;78.40;;;;;;4993808;28;20486;-79
2021/10/01 04:43:50;;;;;;;7.25;0.70;;;12.80;78.50;;;;;;5010200;28;20030;-79
2021/10/01 04:46:16;;;;;;;4.30;0.55;;;12.70;78.50;;;;;;4994637;28;20034;-76
2021/10/01 04:48:41;;;;;;;3.28;0.50;;;12.70;78.60;;;;;;4993515;28;20482;-78
2021/10/01 04:51:07;;;;;;;3.80;0.90;;;12.70;78.70;;;;;;4993749;28;20027;-82
2021/10/01 04:53:33;;;;;;;7.97;0.95;;;12.60;78.60;;;;;;4994901;28;20108;-79
2021/10/01 04:55:59;;;;;;;1.52;0.38;;;12.60;78.70;;;;;;4993464;28;20026;-79
2021/10/01 04:58:24;;;;;;;4.45;0.63;;;12.60;78.80;;;;;;5003397;28;20038;-80
2021/10/01 05:00:50;;;;;;;2.83;0.57;;;12.60;78.80;;;;;;4992926;28;20053;-81
2021/10/01 05:03:16;;;;;;;6.78;0.75;;;12.60;78.90;;;;;;4994209;28;20034;-78
2021/10/01 05:05:41;;;;;;;5.53;1.02;;;12.50;78.90;;;;;;5009872;28;20030;-79
2021/10/01 05:08:07;;;;;;;2.50;0.47;;;12.60;78.90;;;;;;4993212;28;20023;-80
2021/10/01 05:10:32;;;;;;;2.70;0.50;;;12.60;78.90;;;;;;4998037;28;20034;-81
2021/10/01 05:12:58;;;;;;;5.30;0.73;;;12.50;78.90;;;;;;5013087;28;20037;-81
2021/10/01 05:15:24;;;;;;;2.55;0.60;;;12.50;78.80;;;;;;4996001;28;20120;-79
2021/10/01 05:17:51;;;;;;;2.30;0.43;;;12.50;78.80;;;;;;5012650;28;20096;-80
2021/10/01 05:20:17;;;;;;;4.40;0.70;;;12.50;79.50;;;;;;5011884;28;20073;-80
2021/10/01 05:22:43;;;;;;;5.53;0.73;;;12.50;78.80;;;;;;4995615;28;20073;-82
2021/10/01 05:25:09;;;;;;;5.18;1.00;;;12.50;78.80;;;;;;5011635;28;20143;-80
2021/10/01 05:27:35;;;;;;;2.90;0.55;;;12.50;78.70;;;;;;5011940;28;20117;-81
2021/10/01 05:30:01;;;;;;;3.15;0.80;;;12.50;78.60;;;;;;5012141;28;20101;-83
2021/10/01 05:32:27;;;;;;;7.78;0.68;;;12.50;78.70;;;;;;5012034;28;20367;-80
2021/10/01 05:34:53;;;;;;;3.30;0.60;;;12.60;78.60;;;;;;5012151;28;20040;-80
2021/10/01 05:37:19;;;;;;;5.82;0.73;;;12.60;78.60;;;;;;5012086;28;20137;-81
2021/10/01 05:39:45;;;;;;;4.95;0.60;;;12.60;78.50;;;;;;4994577;28;20057;-82
2021/10/01 05:42:11;;;;;;;6.70;0.93;;;12.60;78.30;;;;;;5012361;28;20064;-79
2021/10/01 05:44:37;;;;;;;3.63;0.50;;;12.60;78.20;;;;;;5012248;28;20045;-75
2021/10/01 05:47:05;;;;;;;3.05;0.68;;;12.60;78.20;;;;;;5028665;28;20026;-76
2021/10/01 05:49:38;;;;;;;5.75;0.73;;;12.60;78.20;;;;;;5007462;28;20043;-75
2021/10/01 05:54:40;;;;;;;3.92;0.60;;;12.70;78.10;;;;;;5014919;28;20033;-76
2021/10/01 05:57:07;;;;;;;4.00;0.60;;;12.70;78.20;;;;;;5008689;28;20034;-76
2021/10/01 05:59:33;;;;;;;5.60;0.60;;;12.70;78.10;;;;;;5003010;28;20038;-76
2021/10/01 06:01:58;;;;;;;5.22;0.70;;;12.70;77.90;;;;;;4985300;28;20030;-79
2021/10/01 06:04:24;;;;;;;2.28;0.50;;;12.70;77.90;;;;;;5004738;28;20041;-76
2021/10/01 06:06:50;;;;;;;4.25;0.60;;;12.70;77.80;;;;;;5006878;28;20030;-76
2021/10/01 06:09:18;;;;;;;4.05;0.63;;;12.70;78.00;;;;;;5014178;28;20037;-75
2021/10/01 06:11:45;;;;;;;4.40;0.65;;;12.70;78.00;;;;;;5019112;28;20030;-76
2021/10/01 06:14:11;;;;;;;6.32;0.65;;;12.70;78.00;;;;;;5006680;28;20042;-76
2021/10/01 06:16:37;;;;;;;4.47;0.75;;;12.70;78.00;;;;;;5030354;28;20106;-76
2021/10/01 06:19:03;;;;;;;3.90;0.60;;;12.70;78.10;;;;;;4999161;28;20062;-75
2021/10/01 06:21:29;;;;;;;7.85;0.70;;;12.70;78.20;;;;;;4991961;28;20031;-76
2021/10/01 06:23:55;;;;;;;4.32;0.65;;;12.70;78.20;;;;;;4991355;28;20050;-76
2021/10/01 06:26:21;;;;;;;4.18;0.50;;;12.80;78.30;;;;;;4991660;28;20125;-76
2021/10/01 06:28:46;;;;;;;2.17;0.50;;;12.80;78.30;;;;;;4992333;28;20037;-74
2021/10/01 06:31:12;;;;;;;2.63;0.40;;;12.80;78.30;;;;;;4992159;28;20038;-76
2021/10/01 06:33:38;;;;;;;6.43;0.70;;;12.80;78.20;;;;;;4991845;28;20031;-75
2021/10/01 06:36:04;;;;;;;2.67;0.82;;;12.80;78.20;;;;;;4993550;28;20117;-74
2021/10/01 06:38:31;;;;;;;3.90;0.45;;;12.80;78.10;;;;;;4992796;28;20034;-75
2021/10/01 06:40:58;;;;;;;4.47;0.57;;;12.80;78.10;;;;;;5008647;28;20035;-75
2021/10/01 06:43:27;;;;;;;8.65;0.60;;;12.80;78.10;;;;;;5008670;28;20498;-75
2021/10/01 06:45:55;;;;;;;4.28;0.70;;;12.90;78.10;;;;;;5015006;28;20053;-76
2021/10/01 08:20:44;;;;;;;;;;;14.30;74.60;;;;;;4995132;28;20521;-76
2021/10/01 08:23:11;;;;;;;4.80;0.70;;;14.40;74.50;;;;;;5010231;28;19921;-76
2021/10/01 08:25:36;;;;;;;4.57;0.50;;;14.50;74.70;;;;;;5010415;28;20026;-77
2021/10/01 08:28:03;;;;;;;2.97;0.43;;;14.50;74.90;;;;;;4993886;28;20026;-77
2021/10/01 08:30:30;;;;;;;3.95;0.70;;;14.50;74.80;;;;;;5013191;28;20042;-78
2021/10/01 08:32:55;;;;;;;4.28;0.60;;;14.60;75.10;;;;;;5014640;28;20033;-76
2021/10/01 08:35:24;;;;;;;4.25;0.60;;;14.70;75.20;;;;;;5013761;28;20374;-77
2021/10/01 08:37:54;;;;;;;4.07;0.50;;;14.60;75.10;;;;;;4997749;28;20034;-77
2021/10/01 08:40:21;;;;;;;2.53;0.45;;;14.70;75.50;;;;;;4997036;28;20030;-75
2021/10/01 08:42:48;;;;;;;5.57;0.80;;;14.60;75.70;;;;;;5014440;28;20030;-77
2021/10/01 08:45:15;;;;;;;6.20;0.77;;;14.60;76.20;;;;;;5003806;28;20510;-75
2021/10/01 08:47:42;;;;;;;5.85;0.88;;;14.60;76.50;;;;;;4977398;28;20026;-76
2021/10/01 08:50:10;;;;;;;3.35;0.73;;;14.60;76.70;;;;;;5009948;28;20030;-75
2021/10/01 08:52:36;;;;;;;4.22;0.60;;;14.70;77.00;;;;;;4993665;28;20025;-77
2021/10/01 08:55:04;;;;;;;4.88;0.80;;;14.70;77.00;;;;;;4977020;28;20026;-77
2021/10/01 08:57:31;;;;;;;2.50;0.40;;;14.80;77.40;;;;;;5009602;28;20085;-75
2021/10/01 08:59:58;;;;;;;8.23;0.70;;;14.80;77.40;;;;;;5005908;28;20060;-77
2021/10/01 09:02:24;;;;;;;4.97;0.75;;;14.90;77.10;;;;;;5013736;28;20038;-77
2021/10/01 09:04:55;;;;;;;4.00;0.55;;;15.00;77.10;;;;;;5012388;28;20537;-76
2021/10/01 09:07:24;;;;;;;4.90;0.52;;;15.00;76.90;;;;;;4996654;28;20025;-76
2021/10/01 09:09:52;;;;;;;3.63;0.40;;;15.10;76.90;;;;;;5012707;28;20030;-74
2021/10/01 09:12:18;;;;;;;2.95;0.40;;;15.20;76.80;;;;;;5012602;28;20033;-76
2021/10/01 09:14:45;;;;;;;4.25;0.55;;;15.30;76.60;;;;;;5012487;28;20034;-76
2021/10/01 09:17:15;;;;;;;4.20;0.93;;;15.30;76.50;;;;;;5012510;28;20062;-76
2021/10/01 09:19:41;;;;;;;3.72;0.80;;;15.40;76.30;;;;;;5012442;28;20032;-77
2021/10/01 09:22:08;;;;;;;6.15;0.60;;;15.40;76.50;;;;;;5012926;28;20061;-76
2021/10/01 09:24:35;;;;;;;6.60;0.90;;;15.30;75.30;;;;;;4996451;28;20069;-77
2021/10/01 09:27:01;;;;;;;5.25;0.60;;;15.30;75.00;;;;;;4996740;28;20117;-76
2021/10/01 09:29:33;;;;;;;5.80;0.60;;;15.20;75.70;;;;;;5012870;28;20572;-76
2021/10/01 09:32:00;;;;;;;4.97;0.68;;;15.10;77.30;;;;;;5013151;28;20033;-75
2021/10/01 09:34:26;;;;;;;5.40;0.63;;;15.10;78.40;;;;;;5012392;28;20029;-75
2021/10/01 09:37:07;;;;;;;5.85;0.60;;;15.00;78.40;;;;;;5012855;28;20481;-76
2021/10/01 09:39:39;;;;;;;6.65;0.70;;;15.00;79.30;;;;;;5013781;28;20626;-75
2021/10/01 09:42:18;;;;;;;2.53;0.50;;;14.90;79.40;;;;;;5012439;28;20473;-75
2021/10/01 09:44:49;;;;;;;5.95;0.70;;;15.00;79.60;;;;;;5013384;28;20168;-76
2021/10/01 09:47:18;;;;;;;3.58;0.50;;;14.90;79.90;;;;;;5012457;28;20026;-77
2021/10/01 09:49:44;;;;;;;7.60;0.80;;;14.90;80.80;;;;;;5012693;28;20065;-76
2021/10/01 09:52:12;;;;;;;6.45;0.73;;;15.00;81.20;;;;;;4995787;28;20034;-75
2021/10/01 09:54:40;;;;;;;2.88;0.65;;;15.00;81.10;;;;;;5012190;28;20034;-75
2021/10/01 09:57:07;;;;;;;7.10;0.63;;;15.00;81.10;;;;;;4996290;28;20030;-76
2021/10/01 09:59:37;;;;;;;2.60;0.40;;;15.00;80.70;;;;;;5012144;28;20034;-76
2021/10/01 10:02:12;;;;;;;4.80;0.50;;;15.00;80.90;;;;;;5012113;28;20030;-76
2021/10/01 10:04:45;;;;;;;4.50;0.68;;;15.00;80.70;;;;;;5013369;28;20022;-78
2021/10/01 10:07:17;;;;;;;3.30;0.40;;;15.00;80.90;;;;;;5012278;28;20022;-76
2021/10/01 10:09:52;;;;;;;7.85;1.02;;;15.10;81.10;;;;;;5011651;28;20018;-75
2021/10/01 10:12:22;;;;;;;3.95;0.60;;;15.20;81.50;;;;;;5012386;28;20489;-75
2021/10/01 10:14:53;;;;;;;2.78;0.40;;;15.30;81.30;;;;;;5013220;28;20033;-76
2021/10/01 10:17:24;;;;;;;4.85;0.75;;;15.40;81.60;;;;;;4995765;28;20033;-77
2021/10/01 10:19:54;;;;;;;5.75;0.70;;;15.60;81.80;;;;;;5011995;28;20061;-75
2021/10/01 10:22:21;;;;;;;2.33;0.50;;;15.70;81.20;;;;;;5012052;28;20054;-76
2021/10/01 10:24:48;;;;;;;5.68;0.68;;;16.00;80.80;;;;;;5014720;28;20036;-76
2021/10/01 10:27:14;;;;;;;5.13;0.98;;;16.20;80.60;;;;;;5015494;28;20022;-76
2021/10/01 10:29:43;;;;;;;6.05;0.60;;;16.80;81.00;;;;;;5016064;28;20531;-75
2021/10/01 10:32:11;;;;;;;6.45;0.60;;;17.70;80.00;;;;;;5016744;28;20033;-76
2021/10/01 10:34:48;;;;;;;3.35;0.63;;;18.50;79.00;;;;;;5015529;28;20481;-75
2021/10/01 10:37:14;;;;;;;3.13;0.65;;;19.20;74.30;;;;;;5017057;28;20152;-76
2021/10/01 10:40:02;;;;;;;5.60;0.60;;;19.60;71.20;;;;;;4999207;28;20049;-74
2021/10/01 10:42:33;;;;;;;7.20;0.70;;;19.70;67.90;;;;;;4995941;28;20022;-76
2021/10/01 10:45:14;;;;;;;4.70;0.65;;;19.70;66.40;;;;;;5010998;28;20030;-76
2021/10/01 10:48:01;;;;;;;5.57;0.95;;;19.90;66.20;;;;;;5015365;28;20090;-79
2021/10/01 10:50:36;;;;;;;4.75;0.65;;;19.90;63.80;;;;;;5016256;28;20018;-76
2021/10/01 10:53:10;;;;;;;8.18;0.57;;;19.80;64.30;;;;;;5016665;28;20033;-77
2021/10/01 10:55:50;;;;;;;;;;;19.80;63.70;;;;;;5015331;28;20065;-76
2021/10/01 10:58:22;;;;;;;3.00;0.70;;;19.70;61.30;;;;;;5015265;28;19955;-75
2021/10/01 11:00:59;;;;;;;3.17;0.70;;;19.60;61.60;;;;;;5016246;28;20060;-75
2021/10/01 11:03:33;;;;;;;4.13;0.68;;;19.50;62.30;;;;;;5011692;28;20034;-75
2021/10/01 11:06:11;;;;;;;;;;;19.40;61.80;;;;;;4994060;28;20040;-75
2021/10/01 11:08:42;;;;;;;5.63;0.90;;;19.20;61.60;;;;;;5014787;28;19941;-76
2021/10/01 11:11:29;;;;;;;7.45;1.10;;;19.10;62.00;;;;;;5014823;28;20022;-75
2021/10/01 11:14:15;;;;;;;3.05;0.57;;;19.00;62.40;;;;;;5029388;28;20033;-75
2021/10/01 11:16:53;;;;;;;2.40;0.57;;;18.90;62.70;;;;;;5015135;28;20045;-76
2021/10/01 11:19:47;;;;;;;2.42;0.50;;;18.90;62.40;;;;;;5002150;28;20042;-75
2021/10/01 11:22:32;;;;;;;4.97;0.75;;;18.70;62.40;;;;;;5013937;28;20068;-75
2021/10/01 11:25:01;;;;;;;2.85;0.50;;;18.50;62.90;;;;;;5014180;28;20029;-75
2021/10/01 11:27:26;;;;;;;3.97;0.70;;;18.50;63.40;;;;;;5015876;28;20089;-75
2021/10/01 11:29:52;;;;;;;4.40;0.77;;;18.40;63.40;;;;;;5014018;28;20064;-78
2021/10/01 11:32:24;;;;;;;5.53;0.50;;;18.40;63.70;;;;;;5014498;28;20450;-75
2021/10/01 11:35:02;;;;;;;4.32;0.57;;;18.40;63.60;;;;;;5014477;28;20385;-74
2021/10/01 11:37:40;;;;;;;6.72;0.77;;;18.40;63.60;;;;;;5014940;28;20106;-76
2021/10/01 11:40:26;;;;;;;3.20;0.70;;;18.30;62.90;;;;;;5005645;28;20030;-75
2021/10/01 11:42:57;;;;;;;3.78;0.75;;;18.20;63.30;;;;;;5014641;28;20038;-76
2021/10/01 11:45:29;;;;;;;4.85;0.50;;;18.10;64.70;;;;;;5015351;28;20025;-76
2021/10/01 11:48:03;;;;;;;6.82;0.90;;;18.00;65.30;;;;;;5014469;28;20500;-76
2021/10/01 11:50:33;;;;;;;2.47;0.50;;;17.90;65.70;;;;;;5014167;28;20072;-75
2021/10/01 11:53:00;;;;;;;4.22;0.60;;;17.80;66.10;;;;;;5015588;28;20033;-76
2021/10/01 11:55:28;;;;;;;2.50;0.50;;;17.70;66.30;;;;;;4998118;28;20026;-75
2021/10/01 11:57:55;;;;;;;3.22;0.73;;;17.70;66.90;;;;;;5015446;28;20030;-76
2021/10/01 12:00:23;;;;;;;5.95;0.55;;;17.70;67.00;;;;;;5014303;28;20033;-76
2021/10/01 12:02:53;;;;;;;4.07;0.60;;;17.80;67.30;;;;;;5015255;28;20029;-77
2021/10/01 12:05:31;;;;;;;7.60;0.60;;;17.70;67.40;;;;;;5013655;28;20390;-74
2021/10/01 12:08:09;;;;;;;5.20;0.63;;;17.80;67.70;;;;;;5015355;28;20129;-76
2021/10/01 12:10:39;;;;;;;4.38;0.65;;;17.80;67.70;;;;;;5013740;28;20424;-74
2021/10/01 12:13:18;;;;;;;5.50;0.63;;;17.80;67.90;;;;;;5015436;28;20032;-76
2021/10/01 12:15:48;;;;;;;3.60;0.60;;;17.90;67.90;;;;;;5013726;28;20045;-75
2021/10/01 12:18:36;;;;;;;6.43;0.70;;;17.90;67.80;;;;;;5013677;28;20041;-77
2021/10/01 12:21:09;;;;;;;3.00;0.40;;;18.00;68.00;;;;;;5014767;28;20026;-76
2021/10/01 12:23:39;;;;;;;5.13;0.60;;;18.10;68.00;;;;;;5013702;28;20050;-75
2021/10/01 12:26:16;;;;;;;3.35;0.50;;;18.10;68.00;;;;;;5013531;28;20498;-76
2021/10/01 12:28:53;;;;;;;3.03;0.60;;;18.20;68.00;;;;;;5013779;28;20029;-75
2021/10/01 12:31:19;;;;;;;7.70;0.68;;;18.20;67.90;;;;;;5013069;28;20026;-76
2021/10/01 12:33:47;;;;;;;4.43;1.10;;;18.20;67.80;;;;;;5015054;28;20022;-76
2021/10/01 12:36:14;;;;;;;4.35;0.80;;;18.20;68.00;;;;;;4996781;28;20379;-75
2021/10/01 12:38:39;;;;;;;4.47;0.70;;;18.20;68.00;;;;;;4997000;28;20032;-75
2021/10/01 12:41:11;;;;;;;5.93;0.77;;;18.20;67.80;;;;;;5013354;28;20034;-74
2021/10/01 12:43:50;;;;;;;2.47;0.47;;;18.20;67.10;;;;;;5014039;28;20540;-76
2021/10/01 12:46:36;;;;;;;2.83;0.55;;;18.30;67.10;;;;;;5012760;28;20046;-76
2021/10/01 12:49:27;;;;;;;3.40;0.52;;;18.30;65.10;;;;;;5013285;28;20483;-76
2021/10/01 12:52:10;;;;;;;6.45;0.90;;;18.30;64.20;;;;;;5014204;28;20037;-75
2021/10/01 12:54:46;;;;;;;2.25;0.40;;;18.40;63.60;;;;;;5012605;28;20545;-75
2021/10/01 12:57:13;;;;;;;2.88;0.50;;;18.50;63.30;;;;;;5014035;28;20034;-74
2021/10/01 12:59:45;;;;;;;4.93;0.63;;;18.60;62.60;;;;;;5014309;28;20030;-75
2021/10/01 13:02:13;;;;;;;3.58;0.60;;;18.70;62.50;;;;;;5012991;28;20033;-74
2021/10/01 13:04:53;;;;;;;2.45;0.47;;;18.80;62.20;;;;;;5012969;28;20113;-74
2021/10/01 13:07:26;;;;;;;2.15;0.47;;;18.90;61.90;;;;;;5013283;28;20499;-74
2021/10/01 13:09:52;;;;;;;2.25;0.40;;;18.90;61.90;;;;;;5013322;28;20037;-73
2021/10/01 13:12:27;;;;;;;6.40;0.80;;;18.90;61.40;;;;;;4996709;28;20036;-75
2021/10/01 13:15:24;;;;;;;5.25;0.50;;;18.90;61.30;;;;;;5013799;28;20406;-75
2021/10/01 13:18:31;;;;;;;5.88;0.55;;;18.80;61.20;;;;;;5013216;28;20460;-75
2021/10/01 13:21:06;;;;;;;4.45;0.45;;;18.70;61.20;;;;;;5020923;28;20022;-74
2021/10/01 13:23:41;;;;;;;2.42;0.50;;;18.70;61.50;;;;;;5013440;28;20502;-73
2021/10/01 13:26:28;;;;;;;3.40;0.85;;;18.60;61.80;;;;;;5012146;28;20101;-73
2021/10/01 13:29:07;;;;;;;3.42;0.50;;;18.60;61.80;;;;;;5008444;28;20068;-75
2021/10/01 13:31:38;;;;;;;5.45;0.60;;;18.60;61.70;;;;;;5013476;28;20049;-74
2021/10/01 13:34:04;;;;;;;3.50;0.55;;;18.50;61.90;;;;;;5012232;28;20053;-75
2021/10/01 13:36:32;;;;;;;7.47;1.00;;;18.40;61.90;;;;;;5013491;28;20025;-73
2021/10/01 13:38:58;;;;;;;3.90;0.50;;;18.40;62.20;;;;;;5012303;28;20366;-74
2021/10/01 13:41:25;;;;;;;4.85;0.30;;;18.40;62.30;;;;;;4995939;28;20033;-74
2021/10/01 13:43:51;;;;;;;5.72;0.55;;;18.40;63.50;;;;;;4995629;28;20389;-74
2021/10/01 13:46:19;;;;;;;5.22;0.50;;;18.50;62.80;;;;;;5012034;28;20034;-74
2021/10/01 13:48:45;;;;;;;5.20;0.90;;;18.50;62.40;;;;;;5012200;28;20025;-75
2021/10/01 13:51:11;;;;;;;4.95;0.60;;;18.60;61.80;;;;;;5013414;28;20029;-75
2021/10/01 13:53:36;;;;;;;6.35;0.60;;;18.60;62.10;;;;;;5013660;28;20390;-75
2021/10/01 13:56:03;;;;;;;3.28;0.45;;;18.60;62.80;;;;;;4995618;28;20394;-74
2021/10/01 13:58:29;;;;;;;5.03;0.57;;;18.60;61.80;;;;;;5011130;28;20030;-72
2021/10/01 14:00:55;;;;;;;4.65;0.70;;;18.60;61.80;;;;;;5015147;28;20018;-74
2021/10/01 14:03:22;;;;;;;4.22;0.70;;;18.60;61.30;;;;;;5017166;28;20080;-74
2021/10/01 14:05:48;;;;;;;4.22;0.43;;;18.60;61.60;;;;;;5013967;28;20509;-73
2021/10/01 14:08:15;;;;;;;1.80;0.47;;;18.60;61.80;;;;;;5015104;28;20108;-74
2021/10/01 14:10:41;;;;;;;4.82;0.70;;;18.50;62.00;;;;;;5015389;28;20487;-74
2021/10/01 14:13:10;;;;;;;2.80;0.60;;;18.60;62.10;;;;;;5016234;28;20447;-75
2021/10/01 14:15:37;;;;;;;3.60;0.50;;;18.50;62.10;;;;;;5016056;28;20029;-74
2021/10/01 14:18:02;;;;;;;4.05;0.63;;;18.50;62.30;;;;;;5016074;28;20497;-73
2021/10/01 14:20:30;;;;;;;7.20;0.55;;;18.50;62.50;;;;;;5015717;28;20038;-74
2021/10/01 14:22:56;;;;;;;2.72;0.80;;;18.50;62.70;;;;;;5015628;28;20410;-74
2021/10/01 14:25:23;;;;;;;4.43;0.63;;;18.40;62.70;;;;;;5016951;28;20022;-74
2021/10/01 14:27:50;;;;;;;2.63;0.57;;;18.50;63.00;;;;;;5015290;28;20442;-74
2021/10/01 14:30:18;;;;;;;3.67;0.57;;;18.40;62.70;;;;;;4999506;28;20041;-74
2021/10/01 14:32:46;;;;;;;2.08;0.60;;;18.50;63.10;;;;;;5016844;28;20375;-74
2021/10/01 14:35:12;;;;;;;2.13;0.50;;;18.50;63.30;;;;;;4998822;28;20461;-75